createdAt,value
2019-04-14T00:00:34.259Z,8.05
2019-04-14T00:03:39.029Z,7.78
2019-04-14T00:06:26.647Z,8.45
2019-04-14T00:09:14.109Z,7.47
2019-04-14T00:11:59.294Z,8.83
2019-04-14T00:14:44.696Z,8.03
2019-04-14T00:17:30.604Z,8.40
2019-04-14T00:20:18.606Z,8.30
2019-04-14T00:23:04.374Z,8.28
2019-04-14T00:25:50.116Z,8.28
2019-04-14T00:28:35.766Z,7.37
2019-04-14T00:31:21.668Z,8.40
2019-04-14T00:34:18.101Z,7.65
2019-04-14T00:37:07.849Z,7.58
2019-04-14T00:39:57.735Z,8.78
2019-04-14T00:42:47.595Z,7.35
2019-04-14T00:45:44.395Z,8.33
2019-04-14T00:48:24.297Z,7.83
2019-04-14T00:51:11.281Z,10.93
2019-04-14T00:53:56.299Z,8.75
2019-04-14T00:56:41.645Z,9.73
2019-04-14T00:59:27.567Z,9.35
2019-04-14T01:02:12.438Z,8.28
2019-04-14T01:04:57.667Z,8.53
2019-04-14T01:07:43.417Z,12.40
2019-04-14T01:10:29.969Z,8.98
2019-04-14T01:13:15.767Z,9.10
2019-04-14T01:16:08.726Z,9.70
2019-04-14T01:18:49.320Z,10.23
2019-04-14T01:21:34.939Z,11.50
2019-04-14T01:24:20.679Z,10.30
2019-04-14T01:27:06.068Z,11.45
2019-04-14T01:29:51.607Z,10.75
2019-04-14T01:32:37.253Z,11.28
2019-04-14T01:35:22.755Z,9.43
2019-04-14T01:38:08.039Z,10.32
2019-04-14T01:40:53.244Z,10.78
2019-04-14T01:43:38.854Z,9.88
2019-04-14T01:46:28.398Z,10.85
2019-04-14T01:49:12.091Z,12.10
2019-04-14T01:52:01.922Z,12.25
2019-04-14T01:54:58.338Z,10.10
2019-04-14T01:57:48.332Z,10.18
2019-04-14T02:00:38.303Z,11.43
2019-04-14T02:03:23.878Z,10.13
2019-04-14T02:06:09.342Z,10.10
2019-04-14T02:08:55.277Z,10.28
2019-04-14T02:11:42.280Z,12.82
2019-04-14T02:14:27.764Z,14.25
2019-04-14T02:17:13.262Z,10.20
2019-04-14T02:19:59.006Z,14.35
2019-04-14T02:22:44.150Z,11.73
2019-04-14T02:25:29.625Z,12.33
2019-04-14T02:28:15.554Z,12.07
2019-04-14T02:31:13.096Z,13.48
2019-04-14T02:34:15.710Z,11.70
2019-04-14T02:37:06.619Z,13.35
2019-04-14T02:40:01.258Z,13.93
2019-04-14T02:42:39.855Z,10.88
2019-04-14T02:45:32.229Z,12.35
2019-04-14T02:48:33.415Z,12.55
2019-04-14T02:51:06.126Z,13.62
2019-04-14T02:53:51.660Z,11.45
2019-04-14T02:59:22.953Z,13.88
2019-04-14T03:04:56.915Z,14.75
2019-04-14T03:07:46.878Z,12.07
2019-04-14T03:10:32.015Z,13.08
2019-04-14T03:13:25.729Z,13.90
2019-04-14T03:16:02.389Z,15.28
2019-04-14T03:19:06.529Z,11.48
2019-04-14T03:22:12.573Z,14.78
2019-04-14T03:24:44.353Z,14.23
2019-04-14T03:34:02.714Z,13.90
2019-04-14T03:36:43.694Z,15.38
2019-04-14T03:39:00.203Z,12.58
2019-04-14T03:41:37.157Z,14.65
2019-04-14T03:47:20.833Z,12.35
2019-04-14T03:50:09.654Z,13.65
2019-04-14T03:52:55.741Z,14.00
2019-04-14T03:55:52.391Z,14.95
2019-04-14T03:58:33.579Z,13.20
2019-04-14T04:01:19.343Z,14.45
2019-04-14T04:04:07.483Z,14.10
2019-04-14T04:06:53.053Z,17.40
2019-04-14T04:09:41.112Z,14.33
2019-04-14T04:12:27.070Z,14.83
2019-04-14T04:15:12.762Z,14.83
2019-04-14T04:18:09.152Z,15.65
2019-04-14T04:20:56.736Z,13.48
2019-04-14T04:23:44.684Z,14.87
2019-04-14T04:26:40.877Z,15.93
2019-04-14T04:29:28.814Z,14.60
2019-04-14T04:32:16.450Z,14.50
2019-04-14T04:35:04.481Z,16.07
2019-04-14T04:37:54.158Z,16.32
2019-04-14T04:40:39.752Z,14.83
2019-04-14T04:43:25.531Z,14.95
2019-04-14T04:46:11.330Z,14.83
2019-04-14T04:49:06.429Z,15.25
2019-04-14T04:51:44.333Z,14.70
2019-04-14T04:54:30.117Z,14.93
2019-04-14T04:57:15.540Z,15.93
2019-04-14T05:00:00.663Z,15.23
2019-04-14T05:02:48.515Z,15.45
2019-04-14T05:06:09.766Z,18.87
2019-04-14T05:09:06.189Z,15.72
2019-04-14T05:12:11.083Z,15.32
2019-04-14T05:15:00.978Z,14.90
2019-04-14T05:17:49.552Z,13.62
2019-04-14T05:20:35.623Z,15.93
2019-04-14T05:23:21.338Z,15.78
2019-04-14T05:26:07.080Z,17.70
2019-04-14T05:28:52.766Z,15.08
2019-04-14T05:31:38.274Z,15.40
2019-04-14T05:34:23.984Z,15.20
2019-04-14T05:37:09.259Z,15.18
2019-04-14T05:39:54.852Z,16.75
2019-04-14T05:42:40.781Z,16.80
2019-04-14T05:45:26.254Z,15.05
2019-04-14T05:48:11.800Z,14.70
2019-04-14T05:50:57.748Z,16.40
2019-04-14T05:53:43.773Z,17.73
2019-04-14T05:56:29.613Z,18.87
2019-04-14T05:59:15.644Z,16.25
2019-04-14T06:02:00.897Z,16.37
2019-04-14T06:04:46.344Z,18.02
2019-04-14T06:07:31.105Z,15.48
2019-04-14T06:10:16.608Z,16.80
2019-04-14T06:13:01.658Z,14.18
2019-04-14T06:15:46.563Z,17.50
2019-04-14T06:18:33.490Z,17.15
2019-04-14T06:21:18.350Z,17.82
2019-04-14T06:24:04.618Z,15.88
2019-04-14T06:26:49.255Z,15.32
2019-04-14T06:29:34.176Z,16.05
2019-04-14T06:32:20.863Z,18.30
2019-04-14T06:35:16.757Z,20.20
2019-04-14T06:38:05.866Z,17.35
2019-04-14T06:40:52.658Z,16.52
2019-04-14T06:43:48.430Z,17.15
2019-04-14T06:46:27.089Z,15.13
2019-04-14T06:49:11.815Z,16.10
2019-04-14T06:51:57.031Z,17.30
2019-04-14T06:54:41.735Z,17.62
2019-04-14T06:57:26.901Z,15.55
2019-04-14T07:00:12.311Z,18.00
2019-04-14T07:02:57.903Z,15.95
2019-04-14T07:05:43.573Z,17.07
2019-04-14T07:08:29.929Z,18.07
2019-04-14T07:11:15.009Z,17.67
2019-04-14T07:14:00.442Z,16.35
2019-04-14T07:16:45.487Z,18.10
2019-04-14T07:19:30.616Z,16.77
2019-04-14T07:22:17.731Z,16.10
2019-04-14T07:25:03.723Z,16.50
2019-04-14T07:27:48.922Z,17.42
2019-04-14T07:30:52.422Z,15.85
2019-04-14T07:33:56.199Z,15.75
2019-04-14T07:37:01.742Z,18.00
2019-04-14T07:40:01.048Z,19.92
2019-04-14T07:42:51.059Z,21.02
2019-04-14T07:45:38.304Z,18.27
2019-04-14T07:48:28.606Z,16.95
2019-04-14T07:51:24.772Z,17.37
2019-04-14T07:54:18.047Z,18.98
2019-04-14T07:57:05.597Z,17.23
2019-04-14T07:59:56.823Z,20.15
2019-04-14T08:02:46.498Z,21.05
2019-04-14T08:05:36.523Z,24.18
2019-04-14T08:08:21.466Z,21.93
2019-04-14T08:11:06.547Z,18.15
2019-04-14T08:13:51.586Z,20.82
2019-04-14T08:16:36.810Z,21.62
2019-04-14T08:19:22.416Z,21.00
2019-04-14T08:22:07.408Z,18.75
2019-04-14T08:24:52.650Z,19.80
2019-04-14T08:27:38.025Z,17.52
2019-04-14T08:30:23.283Z,22.13
2019-04-14T08:33:08.409Z,18.23
2019-04-14T08:35:53.690Z,21.40
2019-04-14T08:38:38.862Z,19.65
2019-04-14T08:41:24.568Z,19.35
2019-04-14T08:44:20.800Z,19.50
2019-04-14T08:47:07.851Z,21.50
2019-04-14T08:49:56.168Z,18.77
2019-04-14T08:52:52.258Z,20.65
2019-04-14T08:55:48.520Z,20.37
2019-04-14T08:58:35.586Z,20.72
2019-04-14T09:01:25.633Z,20.52
2019-04-14T09:04:18.753Z,20.20
2019-04-14T09:07:21.006Z,19.30
2019-04-14T09:10:10.878Z,17.62
2019-04-14T09:12:58.655Z,20.57
2019-04-14T09:15:43.740Z,19.95
2019-04-14T09:18:30.437Z,20.12
2019-04-14T09:21:15.165Z,19.62
2019-04-14T09:24:00.259Z,23.52
2019-04-14T09:26:45.059Z,23.55
2019-04-14T09:29:30.273Z,19.10
2019-04-14T09:32:15.902Z,20.95
2019-04-14T09:35:00.806Z,19.70
2019-04-14T09:37:45.925Z,19.80
2019-04-14T09:40:31.447Z,18.98
2019-04-14T09:43:16.581Z,19.55
2019-04-14T09:46:01.963Z,19.85
2019-04-14T09:48:47.257Z,19.37
2019-04-14T09:51:34.747Z,21.30
2019-04-14T09:54:19.951Z,18.48
2019-04-14T09:57:04.781Z,21.07
2019-04-14T09:59:49.977Z,18.98
2019-04-14T10:02:35.050Z,18.02
2019-04-14T10:05:21.226Z,18.45
2019-04-14T10:08:06.504Z,16.60
2019-04-14T10:10:53.681Z,18.23
2019-04-14T10:13:39.075Z,17.20
2019-04-14T10:16:24.180Z,19.70
2019-04-14T10:19:09.244Z,17.87
2019-04-14T10:21:53.982Z,17.05
2019-04-14T10:24:38.904Z,17.20
2019-04-14T10:27:23.602Z,18.25
2019-04-14T10:30:08.827Z,17.60
2019-04-14T10:32:53.951Z,17.17
2019-04-14T10:35:39.035Z,19.07
2019-04-14T10:38:23.876Z,18.55
2019-04-14T10:41:09.340Z,18.73
2019-04-14T10:43:54.389Z,19.02
2019-04-14T10:46:39.971Z,16.70
2019-04-14T10:49:25.411Z,20.52
2019-04-14T10:52:10.773Z,17.45
2019-04-14T10:54:55.949Z,17.67
2019-04-14T10:57:41.377Z,16.80
2019-04-14T11:00:26.597Z,17.27
2019-04-14T11:03:11.754Z,14.75
2019-04-14T11:05:58.448Z,30.80
2019-04-14T11:08:43.342Z,31.07
2019-04-14T11:11:28.766Z,26.80
2019-04-14T11:14:13.494Z,33.08
2019-04-14T11:16:59.215Z,26.15
2019-04-14T11:19:44.226Z,26.73
2019-04-14T11:22:29.016Z,20.23
2019-04-14T11:25:14.320Z,19.62
2019-04-14T11:27:59.535Z,24.02
2019-04-14T11:30:44.393Z,21.17
2019-04-14T11:33:34.114Z,20.72
2019-04-14T11:36:27.288Z,21.42
2019-04-14T11:39:14.512Z,22.15
2019-04-14T11:41:59.599Z,19.20
2019-04-14T11:44:45.990Z,19.10
2019-04-14T11:47:31.370Z,18.85
2019-04-14T11:50:16.865Z,21.35
2019-04-14T11:53:02.311Z,19.12
2019-04-14T11:55:47.863Z,22.62
2019-04-14T11:58:33.861Z,21.42
2019-04-14T12:01:31.671Z,18.42
2019-04-14T12:04:27.857Z,20.88
2019-04-14T12:07:17.714Z,19.73
2019-04-14T12:10:06.388Z,17.52
2019-04-14T12:12:51.593Z,18.73
2019-04-14T12:15:36.884Z,17.52
2019-04-14T12:18:22.230Z,18.27
2019-04-14T12:21:07.369Z,20.70
2019-04-14T12:23:52.709Z,20.15
2019-04-14T12:26:37.526Z,15.20
2019-04-14T12:29:23.643Z,17.25
2019-04-14T12:32:08.964Z,17.67
2019-04-14T12:34:55.743Z,22.58
2019-04-14T12:37:42.857Z,16.20
2019-04-14T12:40:27.668Z,17.52
2019-04-14T12:43:14.375Z,15.75
2019-04-14T12:46:16.317Z,16.97
2019-04-14T12:49:03.410Z,21.02
2019-04-14T12:51:53.399Z,16.55
2019-04-14T12:54:38.919Z,17.35
2019-04-14T12:57:35.694Z,16.75
2019-04-14T13:00:22.863Z,19.27
2019-04-14T13:03:07.757Z,19.80
2019-04-14T13:05:53.184Z,17.73
2019-04-14T13:08:38.520Z,16.65
2019-04-14T13:11:23.716Z,16.40
2019-04-14T13:14:08.777Z,15.83
2019-04-14T13:16:54.778Z,18.07
2019-04-14T13:19:40.043Z,18.02
2019-04-14T13:22:33.725Z,15.98
2019-04-14T13:25:11.563Z,16.02
2019-04-14T13:27:57.081Z,16.48
2019-04-14T13:30:42.971Z,15.75
2019-04-14T13:33:28.199Z,19.55
2019-04-14T13:36:13.480Z,16.60
2019-04-14T13:38:58.503Z,17.07
2019-04-14T13:41:43.665Z,15.95
2019-04-14T13:44:28.346Z,16.07
2019-04-14T13:47:13.965Z,20.57
2019-04-14T13:49:59.189Z,15.93
2019-04-14T13:52:47.018Z,15.03
2019-04-14T13:55:32.795Z,17.40
2019-04-14T13:58:18.266Z,15.13
2019-04-14T14:01:03.465Z,13.68
2019-04-14T14:03:50.380Z,16.07
2019-04-14T14:06:35.440Z,13.62
2019-04-14T14:09:20.462Z,18.32
2019-04-14T14:12:07.934Z,16.30
2019-04-14T14:15:04.492Z,19.30
2019-04-14T14:17:51.843Z,18.37
2019-04-14T14:20:39.080Z,17.02
2019-04-14T14:23:27.830Z,18.25
2019-04-14T14:26:14.990Z,18.32
2019-04-14T14:29:00.620Z,13.72
2019-04-14T14:31:47.019Z,16.07
2019-04-14T14:34:32.064Z,14.68
2019-04-14T14:37:17.393Z,17.02
2019-04-14T14:40:04.136Z,15.40
2019-04-14T14:42:51.249Z,17.20
2019-04-14T14:45:51.376Z,15.28
2019-04-14T14:48:41.396Z,16.70
2019-04-14T14:51:45.183Z,15.50
2019-04-14T14:54:30.429Z,17.05
2019-04-14T14:57:17.384Z,14.98
2019-04-14T15:00:08.576Z,13.10
2019-04-14T15:02:54.208Z,15.77
2019-04-14T15:05:39.357Z,15.48
2019-04-14T15:08:24.610Z,16.97
2019-04-14T15:11:09.842Z,17.57
2019-04-14T15:13:56.181Z,13.88
2019-04-14T15:16:41.357Z,14.45
2019-04-14T15:19:26.351Z,12.73
2019-04-14T15:22:11.338Z,12.13
2019-04-14T15:24:56.304Z,13.25
2019-04-14T15:27:41.242Z,14.23
2019-04-14T15:30:26.281Z,13.13
2019-04-14T15:33:11.477Z,13.00
2019-04-14T15:35:56.578Z,12.70
2019-04-14T15:38:42.096Z,12.80
2019-04-14T15:41:26.813Z,13.15
2019-04-14T15:44:11.754Z,14.55
2019-04-14T15:46:56.847Z,13.22
2019-04-14T15:49:42.442Z,13.15
2019-04-14T15:52:27.593Z,13.25
2019-04-14T15:55:16.569Z,13.45
2019-04-14T15:58:09.785Z,14.90
2019-04-14T16:01:15.069Z,14.85
2019-04-14T16:04:13.637Z,15.38
2019-04-14T16:07:06.551Z,12.43
2019-04-14T16:10:02.761Z,11.85
2019-04-14T16:13:07.101Z,11.63
2019-04-14T16:16:09.258Z,12.20
2019-04-14T16:19:05.559Z,15.53
2019-04-14T16:21:50.522Z,11.05
2019-04-14T16:24:35.806Z,12.07
2019-04-14T16:27:26.083Z,12.75
2019-04-14T16:30:19.281Z,14.65
2019-04-14T16:33:12.572Z,12.25
2019-04-14T16:35:58.668Z,12.60
2019-04-14T16:38:44.392Z,11.00
2019-04-14T16:41:30.492Z,10.72
2019-04-14T16:44:15.542Z,11.15
2019-04-14T16:47:00.869Z,11.97
2019-04-14T16:49:46.237Z,12.63
2019-04-14T16:52:36.199Z,12.58
2019-04-14T16:55:23.378Z,12.00
2019-04-14T16:58:25.841Z,11.55
2019-04-14T17:01:13.035Z,11.65
2019-04-14T17:03:57.998Z,12.47
2019-04-14T17:06:43.292Z,11.63
2019-04-14T17:09:28.363Z,12.85
2019-04-14T17:12:13.469Z,12.55
2019-04-14T17:15:00.634Z,10.85
2019-04-14T17:18:05.808Z,11.33
2019-04-14T17:20:59.104Z,10.80
2019-04-14T17:23:57.971Z,10.68
2019-04-14T17:26:46.268Z,11.10
2019-04-14T17:29:38.912Z,10.70
2019-04-14T17:32:29.090Z,9.23
2019-04-14T17:35:31.405Z,11.33
2019-04-14T17:38:21.655Z,10.68
2019-04-14T17:41:15.243Z,10.60
2019-04-14T17:44:05.990Z,10.13
2019-04-14T17:47:08.226Z,12.40
2019-04-14T17:50:13.207Z,13.48
2019-04-14T17:53:00.021Z,12.82
2019-04-14T17:55:50.058Z,12.58
2019-04-14T17:58:38.049Z,12.75
2019-04-14T18:01:25.303Z,11.40
2019-04-14T18:04:24.620Z,12.35
2019-04-14T18:07:11.833Z,10.63
2019-04-14T18:10:01.318Z,10.50
2019-04-14T18:12:54.051Z,11.97
2019-04-14T18:15:44.244Z,9.28
2019-04-14T18:18:31.204Z,9.73
2019-04-14T18:21:16.094Z,10.63
2019-04-14T18:24:02.673Z,14.68
2019-04-14T18:26:47.680Z,9.08
2019-04-14T18:29:34.933Z,11.50
2019-04-14T18:32:27.917Z,9.90
2019-04-14T18:35:15.118Z,11.63
2019-04-14T18:38:02.330Z,9.85
2019-04-14T18:40:54.981Z,11.68
2019-04-14T18:43:43.156Z,11.00
2019-04-14T18:46:33.136Z,10.90
2019-04-14T18:49:26.052Z,13.58
2019-04-14T18:52:13.340Z,14.93
2019-04-14T18:55:17.586Z,10.95
2019-04-14T18:58:21.403Z,11.75
2019-04-14T19:01:08.991Z,9.63
2019-04-14T19:03:54.317Z,11.28
2019-04-14T19:06:39.532Z,11.55
2019-04-14T19:09:24.779Z,11.65
2019-04-14T19:12:20.472Z,12.90
2019-04-14T19:15:13.750Z,11.80
2019-04-14T19:18:02.031Z,13.35
2019-04-14T19:20:49.096Z,17.57
2019-04-14T19:23:34.397Z,11.10
2019-04-14T19:26:19.033Z,12.15
2019-04-14T19:29:04.184Z,12.95
2019-04-14T19:31:49.518Z,13.05
2019-04-14T19:34:35.102Z,12.18
2019-04-14T19:37:20.356Z,12.37
2019-04-14T19:40:05.646Z,12.30
2019-04-14T19:42:50.502Z,13.80
2019-04-14T19:45:35.736Z,13.05
2019-04-14T19:48:21.205Z,13.88
2019-04-14T19:51:06.364Z,11.78
2019-04-14T19:53:51.556Z,13.48
2019-04-14T19:56:36.711Z,11.15
2019-04-14T19:59:21.654Z,12.88
2019-04-14T20:02:07.059Z,12.35
2019-04-14T20:04:52.057Z,13.18
2019-04-14T20:07:38.482Z,12.25
2019-04-14T20:10:23.537Z,13.00
2019-04-14T20:13:09.875Z,12.33
2019-04-14T20:15:58.703Z,10.72
2019-04-14T20:18:46.229Z,10.65
2019-04-14T20:21:42.246Z,11.95
2019-04-14T20:24:35.495Z,11.43
2019-04-14T20:27:22.491Z,11.78
2019-04-14T20:30:12.395Z,12.75
2019-04-14T20:32:57.767Z,12.70
2019-04-14T20:35:43.007Z,11.88
2019-04-14T20:38:27.783Z,13.03
2019-04-14T20:41:12.604Z,14.78
2019-04-14T20:43:57.986Z,12.43
2019-04-14T20:46:42.913Z,13.25
2019-04-14T20:49:27.623Z,13.70
2019-04-14T20:52:12.804Z,14.00
2019-04-14T20:54:57.704Z,16.05
2019-04-14T20:57:42.587Z,12.58
2019-04-14T21:00:28.199Z,12.90
2019-04-14T21:03:20.918Z,10.65
2019-04-14T21:06:08.253Z,17.62
2019-04-14T21:08:56.970Z,12.43
2019-04-14T21:11:58.940Z,14.70
2019-04-14T21:14:58.087Z,13.00
2019-04-14T21:18:03.044Z,12.70
2019-04-14T21:20:55.851Z,14.45
2019-04-14T21:23:45.823Z,12.28
2019-04-14T21:26:32.810Z,11.80
2019-04-14T21:29:19.676Z,14.30
2019-04-14T21:32:15.642Z,12.70
2019-04-14T21:35:05.542Z,11.60
2019-04-14T21:38:01.755Z,12.55
2019-04-14T21:41:05.001Z,13.68
2019-04-14T21:43:50.120Z,10.35
2019-04-14T21:46:35.534Z,14.47
2019-04-14T21:49:20.287Z,13.32
2019-04-14T21:52:07.527Z,14.07
2019-04-14T21:54:52.746Z,15.38
2019-04-14T21:57:51.658Z,12.20
2019-04-14T22:01:11.685Z,12.65
2019-04-14T22:04:07.644Z,14.38
2019-04-14T22:07:00.827Z,13.40
2019-04-14T22:09:46.007Z,12.13
2019-04-14T22:12:31.233Z,13.88
2019-04-14T22:15:16.778Z,13.58
2019-04-14T22:18:01.597Z,13.08
2019-04-14T22:20:46.676Z,14.05
2019-04-14T22:23:33.134Z,15.95
2019-04-14T22:26:26.089Z,12.45
2019-04-14T22:29:05.174Z,14.85
2019-04-14T22:31:50.571Z,11.78
2019-04-14T22:34:35.875Z,11.55
2019-04-14T22:37:20.758Z,12.55
2019-04-14T22:40:06.101Z,12.85
2019-04-14T22:42:51.590Z,11.40
2019-04-14T22:45:36.741Z,13.98
2019-04-14T22:48:21.641Z,11.10
2019-04-14T22:51:06.752Z,14.50
2019-04-14T22:53:51.795Z,16.23
2019-04-14T22:56:39.419Z,12.85
2019-04-14T22:59:23.677Z,13.45
2019-04-14T23:02:10.898Z,14.15
2019-04-14T23:05:16.363Z,11.90
2019-04-14T23:08:20.062Z,11.78
2019-04-14T23:11:13.325Z,13.65
2019-04-14T23:14:12.312Z,9.50
2019-04-14T23:16:59.464Z,15.43
2019-04-14T23:19:49.078Z,13.53
2019-04-14T23:22:45.428Z,10.03
2019-04-14T23:25:31.517Z,12.25
2019-04-14T23:28:16.584Z,10.95
2019-04-14T23:31:02.198Z,11.00
2019-04-14T23:33:47.303Z,16.00
2019-04-14T23:36:34.030Z,12.88
2019-04-14T23:39:18.956Z,10.10
2019-04-14T23:42:04.425Z,11.48
2019-04-14T23:44:49.823Z,12.98
2019-04-14T23:47:35.083Z,11.40
2019-04-14T23:50:20.049Z,13.40
2019-04-14T23:53:04.988Z,10.48
2019-04-14T23:55:50.825Z,11.48
2019-04-14T23:58:36.025Z,12.93
